sensor_id;sensor_type;location;lat;lon;timestamp;P1;durP1;ratioP1;P2;durP2;ratioP2
3453;SDS011;1741;51.294;8.608;2024-01-30T00:00:44;15.67;;;9.60;;
3453;SDS011;1741;51.294;8.608;2024-01-30T00:03:11;13.13;;;10.50;;
3453;SDS011;1741;51.294;8.608;2024-01-30T00:05:38;16.33;;;10.47;;
3453;SDS011;1741;51.294;8.608;2024-01-30T00:08:06;11.53;;;9.30;;
3453;SDS011;1741;51.294;8.608;2024-01-30T00:10:34;11.83;;;8.77;;
3453;SDS011;1741;51.294;8.608;2024-01-30T00:13:02;10.17;;;8.80;;
3453;SDS011;1741;51.294;8.608;2024-01-30T00:15:29;12.67;;;9.53;;
3453;SDS011;1741;51.294;8.608;2024-01-30T00:17:56;13.90;;;9.70;;
3453;SDS011;1741;51.294;8.608;2024-01-30T00:20:24;11.73;;;9.13;;
3453;SDS011;1741;51.294;8.608;2024-01-30T00:22:52;13.27;;;9.47;;
3453;SDS011;1741;51.294;8.608;2024-01-30T00:25:19;12.33;;;9.10;;
3453;SDS011;1741;51.294;8.608;2024-01-30T00:27:46;12.43;;;9.73;;
3453;SDS011;1741;51.294;8.608;2024-01-30T00:30:13;11.90;;;8.87;;
3453;SDS011;1741;51.294;8.608;2024-01-30T00:32:41;13.33;;;9.03;;
3453;SDS011;1741;51.294;8.608;2024-01-30T00:35:08;15.87;;;9.43;;
3453;SDS011;1741;51.294;8.608;2024-01-30T00:37:37;14.30;;;9.70;;
3453;SDS011;1741;51.294;8.608;2024-01-30T00:40:04;15.30;;;8.67;;
3453;SDS011;1741;51.294;8.608;2024-01-30T00:42:33;12.83;;;9.13;;
3453;SDS011;1741;51.294;8.608;2024-01-30T00:44:59;14.53;;;11.13;;
3453;SDS011;1741;51.294;8.608;2024-01-30T00:47:27;12.33;;;9.07;;
3453;SDS011;1741;51.294;8.608;2024-01-30T00:49:55;13.00;;;9.20;;
3453;SDS011;1741;51.294;8.608;2024-01-30T00:52:22;17.50;;;9.87;;
3453;SDS011;1741;51.294;8.608;2024-01-30T00:54:50;14.23;;;9.63;;
3453;SDS011;1741;51.294;8.608;2024-01-30T00:57:17;17.30;;;10.30;;
3453;SDS011;1741;51.294;8.608;2024-01-30T00:59:44;17.20;;;10.50;;
3453;SDS011;1741;51.294;8.608;2024-01-30T01:02:12;19.77;;;10.60;;
3453;SDS011;1741;51.294;8.608;2024-01-30T01:04:40;16.37;;;9.90;;
3453;SDS011;1741;51.294;8.608;2024-01-30T01:07:07;17.00;;;10.40;;
3453;SDS011;1741;51.294;8.608;2024-01-30T01:09:34;20.40;;;12.00;;
3453;SDS011;1741;51.294;8.608;2024-01-30T01:12:02;18.93;;;11.47;;
3453;SDS011;1741;51.294;8.608;2024-01-30T01:14:29;18.23;;;10.57;;
3453;SDS011;1741;51.294;8.608;2024-01-30T01:16:58;19.20;;;11.43;;
3453;SDS011;1741;51.294;8.608;2024-01-30T01:19:25;14.27;;;10.30;;
3453;SDS011;1741;51.294;8.608;2024-01-30T01:21:52;17.50;;;10.50;;
3453;SDS011;1741;51.294;8.608;2024-01-30T01:24:19;13.77;;;9.80;;
3453;SDS011;1741;51.294;8.608;2024-01-30T01:26:47;15.27;;;9.50;;
3453;SDS011;1741;51.294;8.608;2024-01-30T01:29:15;13.20;;;9.60;;
3453;SDS011;1741;51.294;8.608;2024-01-30T01:31:42;11.57;;;10.10;;
3453;SDS011;1741;51.294;8.608;2024-01-30T01:34:13;12.00;;;9.03;;
3453;SDS011;1741;51.294;8.608;2024-01-30T01:36:40;15.67;;;8.97;;
3453;SDS011;1741;51.294;8.608;2024-01-30T01:39:07;12.30;;;9.73;;
3453;SDS011;1741;51.294;8.608;2024-01-30T01:41:35;15.30;;;9.00;;
3453;SDS011;1741;51.294;8.608;2024-01-30T01:44:02;11.20;;;8.17;;
3453;SDS011;1741;51.294;8.608;2024-01-30T01:46:31;14.40;;;9.67;;
3453;SDS011;1741;51.294;8.608;2024-01-30T01:49:00;14.43;;;8.07;;
3453;SDS011;1741;51.294;8.608;2024-01-30T01:51:29;18.40;;;9.03;;
3453;SDS011;1741;51.294;8.608;2024-01-30T01:54:01;16.10;;;8.97;;
3453;SDS011;1741;51.294;8.608;2024-01-30T01:56:30;12.23;;;7.80;;
3453;SDS011;1741;51.294;8.608;2024-01-30T01:59:00;14.37;;;8.80;;
3453;SDS011;1741;51.294;8.608;2024-01-30T02:01:31;12.60;;;9.53;;
3453;SDS011;1741;51.294;8.608;2024-01-30T02:03:59;13.30;;;8.30;;
3453;SDS011;1741;51.294;8.608;2024-01-30T02:06:27;11.20;;;8.50;;
3453;SDS011;1741;51.294;8.608;2024-01-30T02:08:54;12.67;;;8.70;;
3453;SDS011;1741;51.294;8.608;2024-01-30T02:11:22;16.50;;;8.90;;
3453;SDS011;1741;51.294;8.608;2024-01-30T02:13:49;17.00;;;8.77;;
3453;SDS011;1741;51.294;8.608;2024-01-30T02:16:17;9.93;;;7.23;;
3453;SDS011;1741;51.294;8.608;2024-01-30T02:18:44;11.57;;;8.33;;
3453;SDS011;1741;51.294;8.608;2024-01-30T02:21:18;15.93;;;8.47;;
3453;SDS011;1741;51.294;8.608;2024-01-30T02:23:48;11.60;;;7.80;;
3453;SDS011;1741;51.294;8.608;2024-01-30T02:26:17;10.50;;;8.03;;
3453;SDS011;1741;51.294;8.608;2024-01-30T02:28:43;15.93;;;7.97;;
3453;SDS011;1741;51.294;8.608;2024-01-30T02:31:10;20.13;;;9.10;;
3453;SDS011;1741;51.294;8.608;2024-01-30T02:33:37;12.83;;;7.70;;
3453;SDS011;1741;51.294;8.608;2024-01-30T02:36:05;13.17;;;7.57;;
3453;SDS011;1741;51.294;8.608;2024-01-30T02:38:32;19.43;;;7.87;;
3453;SDS011;1741;51.294;8.608;2024-01-30T02:41:00;17.57;;;8.03;;
3453;SDS011;1741;51.294;8.608;2024-01-30T02:43:27;17.13;;;7.83;;
3453;SDS011;1741;51.294;8.608;2024-01-30T02:45:54;11.67;;;7.77;;
3453;SDS011;1741;51.294;8.608;2024-01-30T02:48:21;11.53;;;7.40;;
3453;SDS011;1741;51.294;8.608;2024-01-30T02:50:48;8.70;;;7.43;;
3453;SDS011;1741;51.294;8.608;2024-01-30T02:53:16;15.70;;;7.93;;
3453;SDS011;1741;51.294;8.608;2024-01-30T02:55:43;11.00;;;8.30;;
3453;SDS011;1741;51.294;8.608;2024-01-30T02:58:10;9.77;;;8.00;;
3453;SDS011;1741;51.294;8.608;2024-01-30T03:00:38;14.43;;;8.70;;
3453;SDS011;1741;51.294;8.608;2024-01-30T03:03:05;8.40;;;7.60;;
3453;SDS011;1741;51.294;8.608;2024-01-30T03:05:34;10.83;;;7.37;;
3453;SDS011;1741;51.294;8.608;2024-01-30T03:08:01;14.87;;;8.27;;
3453;SDS011;1741;51.294;8.608;2024-01-30T03:10:28;13.60;;;7.67;;
3453;SDS011;1741;51.294;8.608;2024-01-30T03:12:55;11.63;;;7.60;;
3453;SDS011;1741;51.294;8.608;2024-01-30T03:15:22;8.50;;;7.53;;
3453;SDS011;1741;51.294;8.608;2024-01-30T03:17:49;11.37;;;7.83;;
3453;SDS011;1741;51.294;8.608;2024-01-30T03:20:17;9.97;;;8.07;;
3453;SDS011;1741;51.294;8.608;2024-01-30T03:22:44;10.50;;;7.87;;
3453;SDS011;1741;51.294;8.608;2024-01-30T03:25:12;11.03;;;7.93;;
3453;SDS011;1741;51.294;8.608;2024-01-30T03:27:39;8.87;;;7.97;;
3453;SDS011;1741;51.294;8.608;2024-01-30T03:30:06;12.43;;;8.77;;
3453;SDS011;1741;51.294;8.608;2024-01-30T03:32:34;8.87;;;7.97;;
3453;SDS011;1741;51.294;8.608;2024-01-30T03:35:01;12.60;;;8.27;;
3453;SDS011;1741;51.294;8.608;2024-01-30T03:37:28;9.40;;;8.43;;
3453;SDS011;1741;51.294;8.608;2024-01-30T03:39:56;11.77;;;8.37;;
3453;SDS011;1741;51.294;8.608;2024-01-30T03:42:23;10.30;;;8.30;;
3453;SDS011;1741;51.294;8.608;2024-01-30T03:44:50;10.00;;;9.10;;
3453;SDS011;1741;51.294;8.608;2024-01-30T03:47:20;11.10;;;7.70;;
3453;SDS011;1741;51.294;8.608;2024-01-30T03:49:48;10.83;;;8.33;;
3453;SDS011;1741;51.294;8.608;2024-01-30T03:52:15;13.20;;;8.80;;
3453;SDS011;1741;51.294;8.608;2024-01-30T03:54:42;11.13;;;8.80;;
3453;SDS011;1741;51.294;8.608;2024-01-30T03:57:10;8.27;;;7.50;;
3453;SDS011;1741;51.294;8.608;2024-01-30T03:59:41;12.13;;;8.47;;
3453;SDS011;1741;51.294;8.608;2024-01-30T04:02:10;9.17;;;7.87;;
3453;SDS011;1741;51.294;8.608;2024-01-30T04:04:39;9.27;;;7.73;;
3453;SDS011;1741;51.294;8.608;2024-01-30T04:07:06;8.80;;;8.00;;
3453;SDS011;1741;51.294;8.608;2024-01-30T04:09:33;11.97;;;7.17;;
3453;SDS011;1741;51.294;8.608;2024-01-30T04:12:00;14.13;;;7.97;;
3453;SDS011;1741;51.294;8.608;2024-01-30T04:14:31;10.67;;;7.30;;
3453;SDS011;1741;51.294;8.608;2024-01-30T04:16:58;11.47;;;8.20;;
3453;SDS011;1741;51.294;8.608;2024-01-30T04:19:25;11.93;;;7.77;;
3453;SDS011;1741;51.294;8.608;2024-01-30T04:21:52;8.23;;;7.10;;
3453;SDS011;1741;51.294;8.608;2024-01-30T04:24:19;9.13;;;8.23;;
3453;SDS011;1741;51.294;8.608;2024-01-30T04:26:46;8.03;;;7.33;;
3453;SDS011;1741;51.294;8.608;2024-01-30T04:29:13;8.17;;;7.57;;
3453;SDS011;1741;51.294;8.608;2024-01-30T04:31:40;8.07;;;7.30;;
3453;SDS011;1741;51.294;8.608;2024-01-30T04:34:08;7.70;;;7.00;;
3453;SDS011;1741;51.294;8.608;2024-01-30T04:36:35;9.47;;;7.43;;
3453;SDS011;1741;51.294;8.608;2024-01-30T04:39:03;8.43;;;7.50;;
3453;SDS011;1741;51.294;8.608;2024-01-30T04:41:31;11.07;;;7.47;;
3453;SDS011;1741;51.294;8.608;2024-01-30T04:44:00;12.93;;;7.77;;
3453;SDS011;1741;51.294;8.608;2024-01-30T04:46:28;8.33;;;7.53;;
3453;SDS011;1741;51.294;8.608;2024-01-30T04:48:55;8.70;;;7.80;;
3453;SDS011;1741;51.294;8.608;2024-01-30T04:51:22;10.63;;;8.93;;
3453;SDS011;1741;51.294;8.608;2024-01-30T04:53:49;10.87;;;8.10;;
3453;SDS011;1741;51.294;8.608;2024-01-30T04:56:16;9.47;;;7.60;;
3453;SDS011;1741;51.294;8.608;2024-01-30T04:58:44;7.90;;;7.20;;
3453;SDS011;1741;51.294;8.608;2024-01-30T05:01:14;7.80;;;7.20;;
3453;SDS011;1741;51.294;8.608;2024-01-30T05:03:43;9.20;;;8.30;;
3453;SDS011;1741;51.294;8.608;2024-01-30T05:06:10;9.17;;;8.27;;
3453;SDS011;1741;51.294;8.608;2024-01-30T05:08:38;9.03;;;8.23;;
3453;SDS011;1741;51.294;8.608;2024-01-30T05:11:05;9.17;;;8.37;;
3453;SDS011;1741;51.294;8.608;2024-01-30T05:13:32;10.90;;;7.57;;
3453;SDS011;1741;51.294;8.608;2024-01-30T05:16:01;9.37;;;7.93;;
3453;SDS011;1741;51.294;8.608;2024-01-30T05:18:29;9.57;;;7.90;;
3453;SDS011;1741;51.294;8.608;2024-01-30T05:20:56;7.90;;;7.30;;
3453;SDS011;1741;51.294;8.608;2024-01-30T05:23:23;20.63;;;7.20;;
3453;SDS011;1741;51.294;8.608;2024-01-30T05:25:51;8.80;;;7.10;;
3453;SDS011;1741;51.294;8.608;2024-01-30T05:28:18;7.00;;;6.33;;
3453;SDS011;1741;51.294;8.608;2024-01-30T05:30:45;15.23;;;7.57;;
3453;SDS011;1741;51.294;8.608;2024-01-30T05:33:12;11.53;;;6.90;;
3453;SDS011;1741;51.294;8.608;2024-01-30T05:35:40;7.00;;;6.30;;
3453;SDS011;1741;51.294;8.608;2024-01-30T05:38:07;7.73;;;6.33;;
3453;SDS011;1741;51.294;8.608;2024-01-30T05:40:34;11.13;;;7.20;;
3453;SDS011;1741;51.294;8.608;2024-01-30T05:43:01;9.30;;;6.80;;
3453;SDS011;1741;51.294;8.608;2024-01-30T05:45:29;6.20;;;5.70;;
3453;SDS011;1741;51.294;8.608;2024-01-30T05:47:56;8.13;;;6.77;;
3453;SDS011;1741;51.294;8.608;2024-01-30T05:50:24;7.00;;;6.23;;
3453;SDS011;1741;51.294;8.608;2024-01-30T05:52:53;7.53;;;6.60;;
3453;SDS011;1741;51.294;8.608;2024-01-30T05:55:20;14.53;;;6.50;;
3453;SDS011;1741;51.294;8.608;2024-01-30T05:57:48;6.37;;;5.87;;
3453;SDS011;1741;51.294;8.608;2024-01-30T06:00:15;6.97;;;6.27;;
3453;SDS011;1741;51.294;8.608;2024-01-30T06:02:42;13.10;;;6.23;;
3453;SDS011;1741;51.294;8.608;2024-01-30T06:05:09;8.03;;;7.23;;
3453;SDS011;1741;51.294;8.608;2024-01-30T06:07:36;6.50;;;6.03;;
3453;SDS011;1741;51.294;8.608;2024-01-30T06:10:04;7.30;;;6.10;;
3453;SDS011;1741;51.294;8.608;2024-01-30T06:12:31;11.20;;;7.00;;
3453;SDS011;1741;51.294;8.608;2024-01-30T06:14:58;9.17;;;6.67;;
3453;SDS011;1741;51.294;8.608;2024-01-30T06:17:25;12.93;;;6.20;;
3453;SDS011;1741;51.294;8.608;2024-01-30T06:19:52;6.37;;;5.93;;
3453;SDS011;1741;51.294;8.608;2024-01-30T06:22:19;6.50;;;5.83;;
3453;SDS011;1741;51.294;8.608;2024-01-30T06:24:46;9.43;;;6.47;;
3453;SDS011;1741;51.294;8.608;2024-01-30T06:27:16;7.07;;;6.47;;
3453;SDS011;1741;51.294;8.608;2024-01-30T06:29:46;6.63;;;6.00;;
3453;SDS011;1741;51.294;8.608;2024-01-30T06:32:13;6.30;;;5.90;;
3453;SDS011;1741;51.294;8.608;2024-01-30T06:34:43;5.60;;;5.30;;
3453;SDS011;1741;51.294;8.608;2024-01-30T06:37:11;5.63;;;5.33;;
3453;SDS011;1741;51.294;8.608;2024-01-30T06:39:38;5.03;;;4.73;;
3453;SDS011;1741;51.294;8.608;2024-01-30T06:42:05;7.93;;;5.43;;
3453;SDS011;1741;51.294;8.608;2024-01-30T06:44:33;5.80;;;5.20;;
3453;SDS011;1741;51.294;8.608;2024-01-30T06:47:00;5.43;;;4.93;;
3453;SDS011;1741;51.294;8.608;2024-01-30T06:49:27;6.70;;;5.93;;
3453;SDS011;1741;51.294;8.608;2024-01-30T06:51:54;7.37;;;6.07;;
3453;SDS011;1741;51.294;8.608;2024-01-30T06:54:21;10.37;;;5.47;;
3453;SDS011;1741;51.294;8.608;2024-01-30T06:56:52;6.27;;;5.73;;
3453;SDS011;1741;51.294;8.608;2024-01-30T06:59:19;8.23;;;6.67;;
3453;SDS011;1741;51.294;8.608;2024-01-30T07:01:46;6.50;;;5.57;;
3453;SDS011;1741;51.294;8.608;2024-01-30T07:04:13;11.43;;;6.40;;
3453;SDS011;1741;51.294;8.608;2024-01-30T07:06:42;6.60;;;6.07;;
3453;SDS011;1741;51.294;8.608;2024-01-30T07:09:10;8.60;;;5.80;;
3453;SDS011;1741;51.294;8.608;2024-01-30T07:11:39;6.80;;;6.30;;
3453;SDS011;1741;51.294;8.608;2024-01-30T07:14:08;7.53;;;6.80;;
3453;SDS011;1741;51.294;8.608;2024-01-30T07:16:35;7.40;;;6.90;;
3453;SDS011;1741;51.294;8.608;2024-01-30T07:19:03;7.80;;;7.30;;
3453;SDS011;1741;51.294;8.608;2024-01-30T07:21:31;7.90;;;7.30;;
3453;SDS011;1741;51.294;8.608;2024-01-30T07:23:58;7.90;;;7.40;;
3453;SDS011;1741;51.294;8.608;2024-01-30T07:26:25;7.90;;;7.40;;
3453;SDS011;1741;51.294;8.608;2024-01-30T07:28:53;8.20;;;7.60;;
3453;SDS011;1741;51.294;8.608;2024-01-30T07:31:21;6.63;;;6.10;;
3453;SDS011;1741;51.294;8.608;2024-01-30T07:33:50;7.03;;;6.43;;
3453;SDS011;1741;51.294;8.608;2024-01-30T07:36:17;7.20;;;6.60;;
3453;SDS011;1741;51.294;8.608;2024-01-30T07:38:44;7.03;;;6.40;;
3453;SDS011;1741;51.294;8.608;2024-01-30T07:41:11;7.03;;;6.53;;
3453;SDS011;1741;51.294;8.608;2024-01-30T07:43:39;6.60;;;6.30;;
3453;SDS011;1741;51.294;8.608;2024-01-30T07:46:07;7.20;;;6.70;;
3453;SDS011;1741;51.294;8.608;2024-01-30T07:48:35;7.60;;;6.90;;
3453;SDS011;1741;51.294;8.608;2024-01-30T07:51:02;7.50;;;6.77;;
3453;SDS011;1741;51.294;8.608;2024-01-30T07:53:30;6.40;;;6.07;;
3453;SDS011;1741;51.294;8.608;2024-01-30T07:56:00;7.40;;;6.83;;
3453;SDS011;1741;51.294;8.608;2024-01-30T07:58:27;7.00;;;6.47;;
3453;SDS011;1741;51.294;8.608;2024-01-30T08:00:54;8.00;;;7.50;;
3453;SDS011;1741;51.294;8.608;2024-01-30T08:03:25;8.60;;;7.90;;
3453;SDS011;1741;51.294;8.608;2024-01-30T08:05:52;7.37;;;6.97;;
3453;SDS011;1741;51.294;8.608;2024-01-30T08:08:19;7.00;;;6.60;;
3453;SDS011;1741;51.294;8.608;2024-01-30T08:10:46;7.80;;;7.30;;
3453;SDS011;1741;51.294;8.608;2024-01-30T08:13:14;7.80;;;7.03;;
3453;SDS011;1741;51.294;8.608;2024-01-30T08:15:42;6.70;;;6.40;;
3453;SDS011;1741;51.294;8.608;2024-01-30T08:18:10;8.13;;;7.63;;
3453;SDS011;1741;51.294;8.608;2024-01-30T08:20:37;8.37;;;7.77;;
3453;SDS011;1741;51.294;8.608;2024-01-30T08:23:04;7.80;;;7.30;;
3453;SDS011;1741;51.294;8.608;2024-01-30T08:25:31;7.90;;;7.50;;
3453;SDS011;1741;51.294;8.608;2024-01-30T08:27:58;9.33;;;8.40;;
3453;SDS011;1741;51.294;8.608;2024-01-30T08:30:27;10.30;;;9.53;;
3453;SDS011;1741;51.294;8.608;2024-01-30T08:32:54;8.80;;;8.00;;
3453;SDS011;1741;51.294;8.608;2024-01-30T08:35:21;8.57;;;8.10;;
3453;SDS011;1741;51.294;8.608;2024-01-30T08:37:48;15.03;;;8.60;;
3453;SDS011;1741;51.294;8.608;2024-01-30T08:40:15;8.70;;;8.20;;
3453;SDS011;1741;51.294;8.608;2024-01-30T08:42:43;12.10;;;9.23;;
3453;SDS011;1741;51.294;8.608;2024-01-30T08:45:10;8.90;;;8.23;;
3453;SDS011;1741;51.294;8.608;2024-01-30T08:47:37;10.70;;;8.43;;
3453;SDS011;1741;51.294;8.608;2024-01-30T08:50:05;9.43;;;8.43;;
3453;SDS011;1741;51.294;8.608;2024-01-30T08:52:33;9.43;;;8.73;;
3453;SDS011;1741;51.294;8.608;2024-01-30T08:55:02;9.90;;;9.30;;
3453;SDS011;1741;51.294;8.608;2024-01-30T08:57:31;10.00;;;9.40;;
3453;SDS011;1741;51.294;8.608;2024-01-30T08:59:58;10.80;;;9.10;;
3453;SDS011;1741;51.294;8.608;2024-01-30T09:02:25;9.40;;;8.90;;
3453;SDS011;1741;51.294;8.608;2024-01-30T09:04:53;9.97;;;9.37;;
3453;SDS011;1741;51.294;8.608;2024-01-30T09:07:21;9.83;;;9.13;;
3453;SDS011;1741;51.294;8.608;2024-01-30T09:09:48;9.50;;;8.93;;
3453;SDS011;1741;51.294;8.608;2024-01-30T09:12:15;9.40;;;8.90;;
3453;SDS011;1741;51.294;8.608;2024-01-30T09:14:42;10.27;;;9.30;;
3453;SDS011;1741;51.294;8.608;2024-01-30T09:17:09;10.10;;;9.40;;
3453;SDS011;1741;51.294;8.608;2024-01-30T09:19:37;9.90;;;9.30;;
3453;SDS011;1741;51.294;8.608;2024-01-30T09:22:05;9.57;;;8.80;;
3453;SDS011;1741;51.294;8.608;2024-01-30T09:24:32;10.60;;;9.40;;
3453;SDS011;1741;51.294;8.608;2024-01-30T09:27:00;9.50;;;8.90;;
3453;SDS011;1741;51.294;8.608;2024-01-30T09:29:27;12.13;;;11.27;;
3453;SDS011;1741;51.294;8.608;2024-01-30T09:31:55;11.17;;;10.37;;
3453;SDS011;1741;51.294;8.608;2024-01-30T09:34:22;11.80;;;10.83;;
3453;SDS011;1741;51.294;8.608;2024-01-30T09:36:49;10.47;;;9.77;;
3453;SDS011;1741;51.294;8.608;2024-01-30T09:39:17;9.20;;;8.70;;
3453;SDS011;1741;51.294;8.608;2024-01-30T09:41:50;10.10;;;9.40;;
3453;SDS011;1741;51.294;8.608;2024-01-30T09:44:25;10.30;;;9.70;;
3453;SDS011;1741;51.294;8.608;2024-01-30T09:46:55;10.70;;;9.80;;
3453;SDS011;1741;51.294;8.608;2024-01-30T09:49:26;10.70;;;9.70;;
3453;SDS011;1741;51.294;8.608;2024-01-30T09:51:53;10.20;;;9.40;;
3453;SDS011;1741;51.294;8.608;2024-01-30T09:54:22;10.40;;;9.80;;
3453;SDS011;1741;51.294;8.608;2024-01-30T09:56:51;9.83;;;9.30;;
3453;SDS011;1741;51.294;8.608;2024-01-30T09:59:18;9.60;;;9.00;;
3453;SDS011;1741;51.294;8.608;2024-01-30T10:01:45;10.43;;;9.63;;
3453;SDS011;1741;51.294;8.608;2024-01-30T10:04:12;9.20;;;8.80;;
3453;SDS011;1741;51.294;8.608;2024-01-30T10:06:40;9.70;;;9.10;;
3453;SDS011;1741;51.294;8.608;2024-01-30T10:09:07;9.57;;;9.10;;
3453;SDS011;1741;51.294;8.608;2024-01-30T10:11:35;10.27;;;9.67;;
3453;SDS011;1741;51.294;8.608;2024-01-30T10:14:03;11.10;;;10.30;;
3453;SDS011;1741;51.294;8.608;2024-01-30T10:16:30;9.90;;;9.50;;
3453;SDS011;1741;51.294;8.608;2024-01-30T10:18:57;10.60;;;10.10;;
3453;SDS011;1741;51.294;8.608;2024-01-30T10:21:25;10.73;;;10.13;;
3453;SDS011;1741;51.294;8.608;2024-01-30T10:23:53;10.50;;;9.80;;
3453;SDS011;1741;51.294;8.608;2024-01-30T10:26:20;10.47;;;10.07;;
3453;SDS011;1741;51.294;8.608;2024-01-30T10:28:48;12.20;;;11.30;;
3453;SDS011;1741;51.294;8.608;2024-01-30T10:31:18;11.30;;;10.47;;
3453;SDS011;1741;51.294;8.608;2024-01-30T10:33:45;13.07;;;10.13;;
3453;SDS011;1741;51.294;8.608;2024-01-30T10:36:13;12.30;;;11.60;;
3453;SDS011;1741;51.294;8.608;2024-01-30T10:38:46;12.90;;;12.00;;
3453;SDS011;1741;51.294;8.608;2024-01-30T10:41:17;11.90;;;10.87;;
3453;SDS011;1741;51.294;8.608;2024-01-30T10:44:02;11.10;;;10.50;;
3453;SDS011;1741;51.294;8.608;2024-01-30T10:46:35;11.20;;;10.50;;
3453;SDS011;1741;51.294;8.608;2024-01-30T10:49:04;12.13;;;11.30;;
3453;SDS011;1741;51.294;8.608;2024-01-30T10:51:32;11.10;;;10.60;;
3453;SDS011;1741;51.294;8.608;2024-01-30T10:54:08;11.67;;;10.77;;
3453;SDS011;1741;51.294;8.608;2024-01-30T10:56:36;11.43;;;10.43;;
3453;SDS011;1741;51.294;8.608;2024-01-30T10:59:07;11.10;;;10.10;;
3453;SDS011;1741;51.294;8.608;2024-01-30T11:01:37;29.63;;;12.53;;
3453;SDS011;1741;51.294;8.608;2024-01-30T11:04:05;12.77;;;11.87;;
3453;SDS011;1741;51.294;8.608;2024-01-30T11:06:40;13.17;;;11.87;;
3453;SDS011;1741;51.294;8.608;2024-01-30T11:09:11;11.97;;;10.93;;
3453;SDS011;1741;51.294;8.608;2024-01-30T11:11:56;10.43;;;9.80;;
3453;SDS011;1741;51.294;8.608;2024-01-30T11:14:29;12.13;;;10.97;;
3453;SDS011;1741;51.294;8.608;2024-01-30T11:16:57;13.00;;;11.70;;
3453;SDS011;1741;51.294;8.608;2024-01-30T11:19:26;13.20;;;12.30;;
3453;SDS011;1741;51.294;8.608;2024-01-30T11:21:57;13.37;;;12.33;;
3453;SDS011;1741;51.294;8.608;2024-01-30T11:24:27;12.13;;;11.27;;
3453;SDS011;1741;51.294;8.608;2024-01-30T11:27:01;13.50;;;11.23;;
3453;SDS011;1741;51.294;8.608;2024-01-30T11:29:34;12.17;;;11.30;;
3453;SDS011;1741;51.294;8.608;2024-01-30T11:32:02;11.57;;;10.83;;
3453;SDS011;1741;51.294;8.608;2024-01-30T11:34:30;12.73;;;11.70;;
3453;SDS011;1741;51.294;8.608;2024-01-30T11:37:03;12.07;;;11.23;;
3453;SDS011;1741;51.294;8.608;2024-01-30T11:39:32;13.93;;;12.60;;
3453;SDS011;1741;51.294;8.608;2024-01-30T11:41:59;12.27;;;11.57;;
3453;SDS011;1741;51.294;8.608;2024-01-30T11:44:27;13.70;;;12.77;;
3453;SDS011;1741;51.294;8.608;2024-01-30T11:46:54;13.70;;;12.90;;
3453;SDS011;1741;51.294;8.608;2024-01-30T11:49:22;14.50;;;13.20;;
3453;SDS011;1741;51.294;8.608;2024-01-30T11:51:50;14.13;;;13.17;;
3453;SDS011;1741;51.294;8.608;2024-01-30T11:54:25;14.03;;;12.53;;
3453;SDS011;1741;51.294;8.608;2024-01-30T11:56:53;12.90;;;11.90;;
3453;SDS011;1741;51.294;8.608;2024-01-30T11:59:21;12.73;;;11.67;;
3453;SDS011;1741;51.294;8.608;2024-01-30T12:01:49;13.93;;;12.80;;
3453;SDS011;1741;51.294;8.608;2024-01-30T12:04:18;13.80;;;12.90;;
3453;SDS011;1741;51.294;8.608;2024-01-30T12:06:45;13.13;;;12.33;;
3453;SDS011;1741;51.294;8.608;2024-01-30T12:09:17;13.50;;;12.63;;
3453;SDS011;1741;51.294;8.608;2024-01-30T12:11:46;13.90;;;13.00;;
3453;SDS011;1741;51.294;8.608;2024-01-30T12:14:14;13.83;;;13.00;;
3453;SDS011;1741;51.294;8.608;2024-01-30T12:16:42;13.67;;;12.87;;
3453;SDS011;1741;51.294;8.608;2024-01-30T12:19:10;14.07;;;13.00;;
3453;SDS011;1741;51.294;8.608;2024-01-30T12:21:38;13.90;;;12.90;;
3453;SDS011;1741;51.294;8.608;2024-01-30T12:24:05;14.97;;;13.50;;
3453;SDS011;1741;51.294;8.608;2024-01-30T12:26:34;14.23;;;13.33;;
3453;SDS011;1741;51.294;8.608;2024-01-30T12:29:03;15.70;;;13.27;;
3453;SDS011;1741;51.294;8.608;2024-01-30T12:31:32;13.70;;;12.40;;
3453;SDS011;1741;51.294;8.608;2024-01-30T12:34:00;14.03;;;13.03;;
3453;SDS011;1741;51.294;8.608;2024-01-30T12:36:28;18.77;;;14.37;;
3453;SDS011;1741;51.294;8.608;2024-01-30T12:38:58;15.97;;;14.40;;
3453;SDS011;1741;51.294;8.608;2024-01-30T12:41:25;14.93;;;13.50;;
3453;SDS011;1741;51.294;8.608;2024-01-30T12:43:57;13.53;;;12.50;;
3453;SDS011;1741;51.294;8.608;2024-01-30T12:46:27;15.43;;;12.87;;
3453;SDS011;1741;51.294;8.608;2024-01-30T12:48:55;14.37;;;13.27;;
3453;SDS011;1741;51.294;8.608;2024-01-30T12:51:23;13.37;;;12.40;;
3453;SDS011;1741;51.294;8.608;2024-01-30T12:53:50;14.47;;;13.07;;
3453;SDS011;1741;51.294;8.608;2024-01-30T12:56:18;13.63;;;12.53;;
3453;SDS011;1741;51.294;8.608;2024-01-30T12:58:45;14.20;;;13.00;;
3453;SDS011;1741;51.294;8.608;2024-01-30T13:01:17;14.57;;;13.00;;
3453;SDS011;1741;51.294;8.608;2024-01-30T13:03:44;16.93;;;12.60;;
3453;SDS011;1741;51.294;8.608;2024-01-30T13:06:12;16.13;;;14.33;;
3453;SDS011;1741;51.294;8.608;2024-01-30T13:08:39;14.10;;;12.80;;
3453;SDS011;1741;51.294;8.608;2024-01-30T13:11:06;15.47;;;13.87;;
3453;SDS011;1741;51.294;8.608;2024-01-30T13:13:42;14.67;;;13.47;;
3453;SDS011;1741;51.294;8.608;2024-01-30T13:16:11;16.53;;;12.67;;
3453;SDS011;1741;51.294;8.608;2024-01-30T13:18:38;18.17;;;14.07;;
3453;SDS011;1741;51.294;8.608;2024-01-30T13:21:05;18.63;;;13.50;;
3453;SDS011;1741;51.294;8.608;2024-01-30T13:23:32;15.47;;;14.00;;
3453;SDS011;1741;51.294;8.608;2024-01-30T13:26:00;17.10;;;14.47;;
3453;SDS011;1741;51.294;8.608;2024-01-30T13:28:28;15.13;;;13.50;;
3453;SDS011;1741;51.294;8.608;2024-01-30T13:30:55;16.57;;;13.30;;
3453;SDS011;1741;51.294;8.608;2024-01-30T13:33:23;17.73;;;12.80;;
3453;SDS011;1741;51.294;8.608;2024-01-30T13:35:50;14.33;;;12.97;;
3453;SDS011;1741;51.294;8.608;2024-01-30T13:38:20;14.20;;;13.00;;
3453;SDS011;1741;51.294;8.608;2024-01-30T13:40:48;18.67;;;13.17;;
3453;SDS011;1741;51.294;8.608;2024-01-30T13:43:16;32.13;;;14.87;;
3453;SDS011;1741;51.294;8.608;2024-01-30T13:45:44;24.67;;;12.40;;
3453;SDS011;1741;51.294;8.608;2024-01-30T13:48:13;16.03;;;13.23;;
3453;SDS011;1741;51.294;8.608;2024-01-30T13:50:40;13.53;;;12.20;;
3453;SDS011;1741;51.294;8.608;2024-01-30T13:53:07;16.70;;;12.57;;
3453;SDS011;1741;51.294;8.608;2024-01-30T13:55:34;17.40;;;14.33;;
3453;SDS011;1741;51.294;8.608;2024-01-30T13:58:02;14.33;;;12.60;;
3453;SDS011;1741;51.294;8.608;2024-01-30T14:00:29;29.07;;;13.90;;
3453;SDS011;1741;51.294;8.608;2024-01-30T14:02:56;14.80;;;11.70;;
3453;SDS011;1741;51.294;8.608;2024-01-30T14:05:26;13.27;;;11.80;;
3453;SDS011;1741;51.294;8.608;2024-01-30T14:07:57;14.87;;;12.60;;
3453;SDS011;1741;51.294;8.608;2024-01-30T14:10:25;14.33;;;12.70;;
3453;SDS011;1741;51.294;8.608;2024-01-30T14:12:53;19.73;;;14.73;;
3453;SDS011;1741;51.294;8.608;2024-01-30T14:15:21;17.33;;;12.13;;
3453;SDS011;1741;51.294;8.608;2024-01-30T14:17:55;22.07;;;13.10;;
3453;SDS011;1741;51.294;8.608;2024-01-30T14:20:24;17.90;;;13.27;;
3453;SDS011;1741;51.294;8.608;2024-01-30T14:22:52;16.33;;;11.70;;
3453;SDS011;1741;51.294;8.608;2024-01-30T14:25:22;13.83;;;12.37;;
3453;SDS011;1741;51.294;8.608;2024-01-30T14:27:50;15.37;;;11.40;;
3453;SDS011;1741;51.294;8.608;2024-01-30T14:30:18;19.03;;;11.57;;
3453;SDS011;1741;51.294;8.608;2024-01-30T14:32:45;16.53;;;11.67;;
3453;SDS011;1741;51.294;8.608;2024-01-30T14:35:13;12.00;;;11.00;;
3453;SDS011;1741;51.294;8.608;2024-01-30T14:37:40;16.67;;;11.30;;
3453;SDS011;1741;51.294;8.608;2024-01-30T14:40:07;17.90;;;11.33;;
3453;SDS011;1741;51.294;8.608;2024-01-30T14:42:35;20.67;;;11.50;;
3453;SDS011;1741;51.294;8.608;2024-01-30T14:45:05;17.17;;;11.10;;
3453;SDS011;1741;51.294;8.608;2024-01-30T14:47:34;31.77;;;10.83;;
3453;SDS011;1741;51.294;8.608;2024-01-30T14:50:03;18.80;;;11.93;;
3453;SDS011;1741;51.294;8.608;2024-01-30T14:52:35;13.23;;;11.77;;
3453;SDS011;1741;51.294;8.608;2024-01-30T14:55:02;15.27;;;10.57;;
3453;SDS011;1741;51.294;8.608;2024-01-30T14:57:30;15.90;;;10.60;;
3453;SDS011;1741;51.294;8.608;2024-01-30T14:59:57;13.20;;;11.07;;
3453;SDS011;1741;51.294;8.608;2024-01-30T15:02:25;30.70;;;11.60;;
3453;SDS011;1741;51.294;8.608;2024-01-30T15:04:56;14.93;;;11.40;;